Time;durP1;ratioP1;P1;durP2;ratioP2;P2;SDS_P1;SDS_P2;PMS_P1;PMS_P2;Temp;Humidity;BMP_temperature;BMP_pressure;BME280_temperature;BME280_humidity;BME280_pressure;Samples;Min_cycle;Max_cycle;Signal;HPM_P1;HPM_P2
2021/01/22 00:01:35;;;;;;;27.58;5.97;;;6.10;99.90;;;;;;4836879;29;20033;-67
2021/01/22 00:04:01;;;;;;;30.23;5.90;;;6.10;99.90;;;;;;4835521;29;20033;-67
2021/01/22 00:06:27;;;;;;;35.03;6.05;;;6.10;99.90;;;;;;4834418;29;20041;-67
2021/01/22 00:08:53;;;;;;;42.20;7.05;;;6.20;99.90;;;;;;4837183;29;20045;-66
2021/01/22 00:11:19;;;;;;;32.85;5.85;;;6.10;99.90;;;;;;4836282;29;20046;-67
2021/01/22 00:13:45;;;;;;;56.13;9.05;;;6.10;99.90;;;;;;4834644;29;20030;-67
2021/01/22 00:16:10;;;;;;;26.30;5.93;;;6.10;99.90;;;;;;4841563;29;20034;-67
2021/01/22 00:18:36;;;;;;;32.85;7.00;;;6.10;99.90;;;;;;4838408;29;20112;-66
2021/01/22 00:21:02;;;;;;;24.25;6.03;;;6.10;99.90;;;;;;4840985;29;20034;-67
2021/01/22 00:23:29;;;;;;;38.03;7.35;;;6.10;99.90;;;;;;4839643;29;20083;-69
2021/01/22 00:25:55;;;;;;;34.55;5.95;;;6.00;99.90;;;;;;4841206;29;20073;-66
2021/01/22 00:28:21;;;;;;;34.38;7.82;;;6.10;99.90;;;;;;4840393;29;20040;-66
2021/01/22 00:30:47;;;;;;;25.73;5.75;;;6.00;99.90;;;;;;4838869;29;20569;-67
2021/01/22 00:33:13;;;;;;;32.55;9.32;;;6.00;99.90;;;;;;4839255;29;20070;-67
2021/01/22 00:35:39;;;;;;;19.80;4.85;;;6.00;99.90;;;;;;4841337;29;20206;-67
2021/01/22 00:38:04;;;;;;;29.17;6.53;;;6.00;99.90;;;;;;4839495;29;20378;-67
2021/01/22 00:40:30;;;;;;;25.40;4.85;;;6.00;99.90;;;;;;4841420;29;20041;-66
2021/01/22 00:42:56;;;;;;;23.20;6.35;;;6.00;99.90;;;;;;4838509;29;20053;-66
2021/01/22 00:45:22;;;;;;;22.55;5.28;;;5.90;99.90;;;;;;4840174;29;20057;-66
2021/01/22 00:47:48;;;;;;;30.23;5.70;;;5.90;99.90;;;;;;4840079;29;20034;-67
2021/01/22 00:50:14;;;;;;;33.72;6.03;;;5.90;99.90;;;;;;4823355;29;20041;-67
2021/01/22 00:52:40;;;;;;;20.23;5.60;;;5.90;99.90;;;;;;4839877;29;20140;-67
2021/01/22 00:55:06;;;;;;;30.30;7.65;;;5.90;99.90;;;;;;4839297;29;20129;-67
2021/01/22 00:57:32;;;;;;;46.47;8.63;;;5.90;99.90;;;;;;4841278;29;20038;-66
2021/01/22 00:59:58;;;;;;;31.35;6.55;;;5.90;99.90;;;;;;4840080;29;20094;-66
2021/01/22 01:02:24;;;;;;;20.13;5.43;;;5.90;99.90;;;;;;4840451;29;20098;-66
2021/01/22 01:04:49;;;;;;;29.42;5.70;;;5.90;99.90;;;;;;4822858;29;20038;-67
2021/01/22 01:07:15;;;;;;;24.75;6.18;;;5.90;99.90;;;;;;4823605;29;20029;-67
2021/01/22 01:09:41;;;;;;;25.65;5.40;;;5.90;99.90;;;;;;4839800;29;20037;-67
2021/01/22 01:12:07;;;;;;;38.40;5.75;;;5.90;99.90;;;;;;4839374;29;20044;-67
2021/01/22 01:14:33;;;;;;;18.58;4.88;;;5.90;99.90;;;;;;4839464;29;20049;-67
2021/01/22 01:16:59;;;;;;;26.42;5.72;;;5.90;99.90;;;;;;4839664;29;20034;-67
2021/01/22 01:19:25;;;;;;;28.23;4.97;;;5.90;99.90;;;;;;4778650;29;20042;-67
2021/01/22 01:21:50;;;;;;;23.05;5.57;;;5.90;99.90;;;;;;4839487;29;20086;-67
2021/01/22 01:24:16;;;;;;;24.77;6.43;;;5.80;99.90;;;;;;4837534;29;20045;-68
2021/01/22 01:26:42;;;;;;;26.92;6.90;;;5.80;99.90;;;;;;4838197;29;20041;-67
2021/01/22 01:29:08;;;;;;;26.98;6.32;;;5.80;99.90;;;;;;4822382;29;20029;-67
2021/01/22 01:31:34;;;;;;;25.77;5.55;;;5.80;99.90;;;;;;4823216;29;20094;-68
2021/01/22 01:34:00;;;;;;;26.65;6.63;;;5.70;99.90;;;;;;4838758;29;20025;-67
2021/01/22 01:36:25;;;;;;;27.75;5.85;;;5.70;99.90;;;;;;4839591;29;20033;-68
2021/01/22 01:38:51;;;;;;;26.90;5.40;;;5.80;99.90;;;;;;4839882;29;20076;-67
2021/01/22 01:41:17;;;;;;;31.77;6.75;;;5.70;99.90;;;;;;4840010;29;20041;-68
2021/01/22 01:43:43;;;;;;;25.38;5.68;;;5.70;99.90;;;;;;4838494;29;20038;-67
2021/01/22 01:46:09;;;;;;;24.30;5.50;;;5.70;99.90;;;;;;4839096;29;20102;-67
2021/01/22 01:48:35;;;;;;;28.33;5.40;;;5.70;99.90;;;;;;4838198;29;20030;-68
2021/01/22 01:51:01;;;;;;;28.90;6.03;;;5.70;99.90;;;;;;4839316;29;20041;-67
2021/01/22 01:53:27;;;;;;;21.05;5.70;;;5.70;99.90;;;;;;4838535;29;20118;-67
2021/01/22 01:55:53;;;;;;;32.35;7.88;;;5.70;99.90;;;;;;4839470;29;20431;-67
2021/01/22 01:58:21;;;;;;;20.77;7.00;;;5.80;99.90;;;;;;4838749;29;20034;-67
2021/01/22 02:00:46;;;;;;;28.10;5.30;;;5.80;99.90;;;;;;4838906;29;20034;-67
2021/01/22 02:03:12;;;;;;;30.02;5.57;;;5.70;99.90;;;;;;4837696;29;20033;-66
2021/01/22 02:05:38;;;;;;;35.03;7.57;;;5.70;99.90;;;;;;4837128;29;20057;-67
2021/01/22 02:08:05;;;;;;;34.47;6.00;;;5.70;99.90;;;;;;4837915;29;20847;-67
2021/01/22 02:10:32;;;;;;;37.40;7.28;;;5.70;99.90;;;;;;4839226;29;20040;-67
2021/01/22 02:12:59;;;;;;;24.90;6.00;;;5.70;99.90;;;;;;4837434;29;20038;-67
2021/01/22 02:15:24;;;;;;;31.58;7.00;;;5.70;99.90;;;;;;4823164;29;20510;-67
2021/01/22 02:17:51;;;;;;;37.22;6.82;;;5.70;99.90;;;;;;4838997;29;20048;-68
2021/01/22 02:20:25;;;;;;;29.85;6.05;;;5.70;99.90;;;;;;4838628;29;20227;-67
2021/01/22 02:22:52;;;;;;;30.48;6.45;;;5.70;99.90;;;;;;4837339;29;20037;-67
2021/01/22 02:25:22;;;;;;;24.05;5.80;;;5.70;99.90;;;;;;4839677;29;20049;-67
2021/01/22 02:27:49;;;;;;;22.52;4.75;;;5.70;99.90;;;;;;4836976;29;20025;-67
2021/01/22 02:30:15;;;;;;;24.50;5.60;;;5.70;99.90;;;;;;4837632;29;20042;-68
2021/01/22 02:32:47;;;;;;;23.42;5.13;;;5.70;99.90;;;;;;4838231;29;20045;-67
2021/01/22 02:35:14;;;;;;;25.15;6.22;;;5.70;99.90;;;;;;4838414;29;20553;-67
2021/01/22 02:37:43;;;;;;;28.65;5.03;;;5.70;99.90;;;;;;4838095;29;20473;-67
2021/01/22 02:40:10;;;;;;;26.70;5.10;;;5.60;99.90;;;;;;4837985;29;20095;-67
2021/01/22 02:42:39;;;;;;;32.15;6.13;;;5.60;99.90;;;;;;4838422;29;20064;-67
2021/01/22 02:45:09;;;;;;;20.60;4.90;;;5.60;99.90;;;;;;4838593;29;20103;-67
2021/01/22 02:47:36;;;;;;;28.67;6.30;;;5.60;99.90;;;;;;4837729;29;20058;-67
2021/01/22 02:50:03;;;;;;;23.60;4.03;;;5.60;99.90;;;;;;4838882;29;20038;-66
2021/01/22 02:52:29;;;;;;;19.38;4.35;;;5.60;99.90;;;;;;4836065;29;20029;-67
2021/01/22 02:54:55;;;;;;;18.88;4.10;;;5.60;99.90;;;;;;4837145;29;20054;-66
2021/01/22 02:57:35;;;;;;;28.38;4.90;;;5.60;99.90;;;;;;4838366;29;20110;-69
2021/01/22 03:00:12;;;;;;;27.95;5.60;;;5.60;99.90;;;;;;4807269;29;20600;-67
2021/01/22 03:02:42;;;;;;;26.60;5.22;;;5.50;99.90;;;;;;4837506;29;20032;-67
2021/01/22 03:05:10;;;;;;;32.45;5.90;;;5.50;99.90;;;;;;4837998;29;20070;-67
2021/01/22 03:07:53;;;;;;;30.70;6.05;;;5.50;99.90;;;;;;4836816;29;20108;-67
2021/01/22 03:10:21;;;;;;;24.80;4.60;;;5.50;99.90;;;;;;4837824;29;20065;-67
2021/01/22 03:12:48;;;;;;;26.75;5.15;;;5.50;99.90;;;;;;4837518;29;20030;-67
2021/01/22 03:15:21;;;;;;;25.63;5.40;;;5.50;99.90;;;;;;4838104;29;20040;-66
2021/01/22 03:17:48;;;;;;;27.75;5.85;;;5.50;99.90;;;;;;4837789;29;20034;-67
2021/01/22 03:20:15;;;;;;;33.30;6.55;;;5.50;99.90;;;;;;4821533;29;20037;-66
2021/01/22 03:22:41;;;;;;;39.50;5.70;;;5.50;99.90;;;;;;4837057;29;20916;-67
2021/01/22 03:25:10;;;;;;;39.03;7.53;;;5.50;99.90;;;;;;4835364;29;20554;-67
2021/01/22 03:27:36;;;;;;;34.63;5.47;;;5.50;99.90;;;;;;4838096;29;20760;-67
2021/01/22 03:30:03;;;;;;;28.60;5.30;;;5.40;99.90;;;;;;4836785;29;20041;-67
2021/01/22 03:32:29;;;;;;;23.40;5.03;;;5.40;99.90;;;;;;4821103;29;20850;-68
2021/01/22 03:34:55;;;;;;;15.82;4.47;;;5.30;99.90;;;;;;4820446;29;20124;-68
2021/01/22 03:37:21;;;;;;;32.17;8.25;;;5.30;99.90;;;;;;4821081;29;20077;-68
2021/01/22 03:39:47;;;;;;;28.85;6.13;;;5.30;99.90;;;;;;4837044;29;20153;-68
2021/01/22 03:42:13;;;;;;;25.50;4.88;;;5.30;99.90;;;;;;4837473;29;20053;-68
2021/01/22 03:44:38;;;;;;;40.65;5.75;;;5.30;99.90;;;;;;4821234;29;20055;-68
2021/01/22 03:47:06;;;;;;;25.88;5.47;;;5.30;99.90;;;;;;4838029;29;20041;-68
2021/01/22 03:49:32;;;;;;;29.98;6.35;;;5.30;99.90;;;;;;4837725;29;20110;-67
2021/01/22 03:52:01;;;;;;;28.00;4.85;;;5.30;99.90;;;;;;4837788;29;20037;-68
2021/01/22 03:54:27;;;;;;;20.77;4.32;;;5.30;99.90;;;;;;4836473;29;20161;-67
2021/01/22 03:56:55;;;;;;;26.65;4.38;;;5.20;99.90;;;;;;4836995;29;20037;-68
2021/01/22 03:59:20;;;;;;;21.75;4.47;;;5.20;99.90;;;;;;4837762;29;20045;-68
2021/01/22 04:01:46;;;;;;;24.95;5.80;;;5.20;99.90;;;;;;4837032;29;20038;-68
2021/01/22 04:04:12;;;;;;;24.83;5.43;;;5.20;99.90;;;;;;4837229;29;20037;-68
2021/01/22 04:06:38;;;;;;;21.42;4.18;;;5.20;99.90;;;;;;4834373;29;20041;-67
2021/01/22 04:09:05;;;;;;;17.90;3.72;;;5.20;99.90;;;;;;4837065;29;20025;-68
2021/01/22 04:11:31;;;;;;;25.20;5.30;;;5.10;99.90;;;;;;4836106;29;20497;-68
2021/01/22 04:13:57;;;;;;;17.83;4.30;;;5.10;99.90;;;;;;4836041;29;20033;-67
2021/01/22 04:16:23;;;;;;;28.30;4.30;;;5.10;99.90;;;;;;4837487;29;20038;-67
2021/01/22 04:18:48;;;;;;;29.55;5.57;;;5.10;99.90;;;;;;4836619;29;20037;-67
2021/01/22 04:21:14;;;;;;;30.52;5.38;;;5.20;99.90;;;;;;4837092;29;20053;-67
2021/01/22 04:23:40;;;;;;;32.35;5.15;;;5.20;99.90;;;;;;4835608;29;20030;-67
2021/01/22 04:26:06;;;;;;;22.35;5.55;;;5.20;99.90;;;;;;4805966;29;20178;-67
2021/01/22 04:28:32;;;;;;;31.63;4.72;;;5.20;99.90;;;;;;4837143;29;20423;-68
2021/01/22 04:30:58;;;;;;;27.90;4.32;;;5.20;99.90;;;;;;4835741;29;20045;-68
2021/01/22 04:33:23;;;;;;;32.45;5.57;;;5.10;99.90;;;;;;4835566;29;20569;-68
2021/01/22 04:35:49;;;;;;;33.88;5.57;;;5.20;99.90;;;;;;4835666;29;20034;-67
2021/01/22 04:38:15;;;;;;;23.63;5.07;;;5.20;99.90;;;;;;4834136;29;20030;-68
2021/01/22 04:40:41;;;;;;;28.88;4.35;;;5.10;99.90;;;;;;4834391;29;20041;-68
2021/01/22 04:43:08;;;;;;;33.42;5.93;;;5.20;99.90;;;;;;4835712;29;20090;-67
2021/01/22 04:45:34;;;;;;;29.05;5.15;;;5.10;99.90;;;;;;4836994;29;20789;-67
2021/01/22 04:48:02;;;;;;;21.65;3.90;;;5.20;99.90;;;;;;4837454;29;20041;-68
2021/01/22 04:50:29;;;;;;;24.48;6.13;;;5.10;99.90;;;;;;4835019;29;20137;-68
2021/01/22 04:52:57;;;;;;;31.85;5.20;;;5.10;99.90;;;;;;4835887;29;20029;-68
2021/01/22 04:55:28;;;;;;;20.05;4.38;;;5.10;99.90;;;;;;4836143;29;20621;-68
2021/01/22 04:57:55;;;;;;;27.55;3.67;;;5.10;99.90;;;;;;4829787;29;20038;-67
2021/01/22 05:00:24;;;;;;;20.55;4.13;;;5.10;99.90;;;;;;4836530;29;20646;-68
2021/01/22 05:02:53;;;;;;;24.98;4.00;;;5.10;99.90;;;;;;4834532;29;20033;-67
2021/01/22 05:05:19;;;;;;;21.92;4.00;;;5.20;99.90;;;;;;4837781;29;20505;-67
2021/01/22 05:07:45;;;;;;;16.38;3.53;;;5.20;99.90;;;;;;4839506;29;20049;-67
2021/01/22 05:10:11;;;;;;;27.80;4.95;;;5.20;99.90;;;;;;4836847;29;20564;-67
2021/01/22 05:12:38;;;;;;;25.98;3.78;;;5.20;99.90;;;;;;4836394;29;20029;-68
2021/01/22 05:15:22;;;;;;;24.08;4.05;;;5.10;99.90;;;;;;4836967;29;20042;-67
2021/01/22 05:18:03;;;;;;;21.98;3.67;;;5.10;99.90;;;;;;4810342;29;20030;-68
2021/01/22 05:20:38;;;;;;;25.90;4.38;;;5.10;99.90;;;;;;4838532;29;20519;-67
2021/01/22 05:23:06;;;;;;;18.35;3.55;;;5.10;99.90;;;;;;4837258;29;20064;-67
2021/01/22 05:25:33;;;;;;;22.65;3.53;;;5.10;99.90;;;;;;4839771;29;20073;-67
2021/01/22 05:27:59;;;;;;;21.92;3.30;;;5.10;99.90;;;;;;4821735;29;20029;-67
2021/01/22 05:30:28;;;;;;;29.83;3.70;;;5.10;99.90;;;;;;4838880;29;20030;-67
2021/01/22 05:33:16;;;;;;;11.63;2.97;;;5.10;99.90;;;;;;4836676;29;20036;-67
2021/01/22 05:35:42;;;;;;;24.80;3.55;;;5.10;99.90;;;;;;4837925;29;20499;-67
2021/01/22 05:38:07;;;;;;;13.25;2.92;;;5.00;99.90;;;;;;4836897;29;20075;-67
2021/01/22 05:40:33;;;;;;;19.30;3.20;;;5.00;99.90;;;;;;4839297;29;20734;-68
2021/01/22 05:42:59;;;;;;;18.00;3.50;;;5.00;99.90;;;;;;4836337;29;20141;-67
2021/01/22 05:45:39;;;;;;;22.40;4.22;;;5.00;99.90;;;;;;4838376;29;20046;-68
2021/01/22 05:48:16;;;;;;;29.20;5.22;;;5.10;99.90;;;;;;4838629;29;20494;-68
2021/01/22 05:50:45;;;;;;;14.10;3.42;;;5.10;99.90;;;;;;4837764;29;20137;-67
2021/01/22 05:53:13;;;;;;;19.00;4.07;;;5.10;99.90;;;;;;4837379;29;20097;-68
2021/01/22 05:55:39;;;;;;;18.30;3.45;;;5.00;99.90;;;;;;4806413;29;20038;-67
2021/01/22 05:58:05;;;;;;;23.73;3.50;;;5.00;99.90;;;;;;4834739;29;20102;-67
2021/01/22 06:00:31;;;;;;;22.25;3.42;;;5.00;99.90;;;;;;4832827;29;20521;-67
2021/01/22 06:02:57;;;;;;;27.73;4.65;;;5.00;99.90;;;;;;4832887;29;20034;-67
2021/01/22 06:05:23;;;;;;;18.55;3.35;;;5.00;99.90;;;;;;4837713;29;20045;-67
2021/01/22 06:08:09;;;;;;;25.60;3.38;;;5.00;99.90;;;;;;4832660;29;20105;-67
2021/01/22 06:10:41;;;;;;;23.30;3.17;;;4.90;99.90;;;;;;4837412;29;20516;-67
2021/01/22 06:13:09;;;;;;;22.88;3.28;;;4.90;99.90;;;;;;4836643;29;20406;-67
2021/01/22 06:15:35;;;;;;;21.17;3.67;;;4.80;99.90;;;;;;4820878;29;20899;-66
2021/01/22 06:18:02;;;;;;;17.45;3.53;;;4.70;99.90;;;;;;4837410;29;20053;-67
2021/01/22 06:20:30;;;;;;;17.40;2.97;;;4.70;99.90;;;;;;4839370;29;20064;-67
2021/01/22 06:23:15;;;;;;;16.38;4.68;;;4.60;99.90;;;;;;4838402;29;20488;-67
2021/01/22 06:25:42;;;;;;;20.58;3.42;;;4.60;99.90;;;;;;4839161;29;20797;-67
2021/01/22 06:28:13;;;;;;;13.48;2.92;;;4.60;99.90;;;;;;4837944;29;20041;-67
2021/01/22 06:30:40;;;;;;;21.17;3.10;;;4.60;99.90;;;;;;4822834;29;20133;-66
2021/01/22 06:33:07;;;;;;;26.70;4.47;;;4.70;99.90;;;;;;4836432;29;20026;-67
2021/01/22 06:35:34;;;;;;;16.00;3.45;;;4.70;99.90;;;;;;4839531;29;20145;-67
2021/01/22 06:38:01;;;;;;;21.50;3.42;;;4.70;99.90;;;;;;4839149;29;20049;-67
2021/01/22 06:40:28;;;;;;;22.88;4.75;;;4.70;99.90;;;;;;4839030;29;20029;-67
2021/01/22 06:42:56;;;;;;;25.23;3.80;;;4.70;99.90;;;;;;4838491;29;20171;-66
2021/01/22 06:45:24;;;;;;;27.77;6.25;;;4.70;99.90;;;;;;4839092;29;20514;-66
2021/01/22 06:48:02;;;;;;;24.50;3.30;;;4.70;99.90;;;;;;4838758;29;20033;-67
2021/01/22 06:50:31;;;;;;;22.95;5.68;;;4.80;99.90;;;;;;4839383;29;20029;-67
2021/01/22 06:53:10;;;;;;;19.43;2.90;;;4.90;99.90;;;;;;4838309;29;20769;-67
2021/01/22 06:55:51;;;;;;;14.13;2.88;;;5.00;99.90;;;;;;4838774;29;20649;-66
2021/01/22 06:58:26;;;;;;;31.20;6.40;;;5.00;99.90;;;;;;4838865;29;20045;-67
2021/01/22 07:00:53;;;;;;;19.73;4.13;;;4.90;99.90;;;;;;4837698;29;20761;-66
2021/01/22 07:03:37;;;;;;;19.50;4.47;;;4.90;99.90;;;;;;4838227;29;20118;-66
2021/01/22 07:06:07;;;;;;;18.67;3.47;;;4.90;99.90;;;;;;4837750;29;20622;-66
2021/01/22 07:08:54;;;;;;;26.42;3.15;;;4.90;99.90;;;;;;4838282;29;20030;-66
2021/01/22 07:11:21;;;;;;;26.05;3.00;;;4.90;99.90;;;;;;4838762;29;20036;-66
2021/01/22 07:13:47;;;;;;;18.92;4.75;;;4.90;99.90;;;;;;4838848;29;20033;-66
2021/01/22 07:16:19;;;;;;;15.57;4.13;;;4.90;99.90;;;;;;4837772;29;20541;-66
2021/01/22 07:18:59;;;;;;;19.58;4.07;;;4.90;99.90;;;;;;4838495;29;20689;-67
2021/01/22 07:21:31;;;;;;;;;;;4.80;99.90;;;;;;4838538;29;20025;-67
2021/01/22 07:24:18;;;;;;;20.13;5.97;;;4.90;99.90;;;;;;4837244;29;19912;-67
2021/01/22 07:26:46;;;;;;;24.15;3.80;;;4.90;99.90;;;;;;4838368;29;20148;-67
2021/01/22 07:29:27;;;;;;;25.90;3.67;;;4.80;99.90;;;;;;4838677;29;20036;-67
2021/01/22 07:32:04;;;;;;;14.90;2.78;;;4.90;99.90;;;;;;4838072;29;20038;-67
2021/01/22 07:34:39;;;;;;;22.42;4.18;;;4.90;99.90;;;;;;4837407;29;20033;-66
2021/01/22 07:37:22;;;;;;;19.55;3.58;;;5.00;99.90;;;;;;4837833;29;20033;-67
2021/01/22 07:39:49;;;;;;;22.55;3.38;;;5.10;99.90;;;;;;4822818;29;20137;-66
2021/01/22 07:42:16;;;;;;;18.83;3.67;;;5.10;99.90;;;;;;4837834;29;20066;-66
2021/01/22 07:44:47;;;;;;;13.23;3.05;;;5.10;99.90;;;;;;4820319;29;20798;-67
2021/01/22 07:47:32;;;;;;;23.65;4.50;;;5.10;99.90;;;;;;4838713;29;20049;-67
2021/01/22 07:50:09;;;;;;;20.10;3.50;;;5.20;99.90;;;;;;4820497;29;20041;-67
2021/01/22 07:52:46;;;;;;;13.25;2.28;;;5.20;99.90;;;;;;4837606;29;20030;-67
2021/01/22 07:55:17;;;;;;;12.43;2.30;;;5.00;99.90;;;;;;4837352;29;20509;-67
2021/01/22 07:57:43;;;;;;;11.90;2.83;;;4.90;99.90;;;;;;4837921;29;20033;-67
2021/01/22 08:00:11;;;;;;;15.88;2.67;;;4.80;99.90;;;;;;4837332;29;20057;-67
2021/01/22 08:02:37;;;;;;;14.73;2.45;;;4.80;99.90;;;;;;4821189;29;20113;-67
2021/01/22 08:05:07;;;;;;;17.10;4.18;;;4.80;99.90;;;;;;4837000;29;20171;-67
2021/01/22 08:07:41;;;;;;;18.08;3.15;;;4.80;99.90;;;;;;4837751;29;20040;-67
2021/01/22 08:10:11;;;;;;;17.48;3.13;;;4.90;99.90;;;;;;4835152;29;20132;-67
2021/01/22 08:12:39;;;;;;;18.58;3.65;;;4.80;99.90;;;;;;4837916;29;20069;-67
2021/01/22 08:15:18;;;;;;;16.83;2.95;;;4.80;99.90;;;;;;4820133;29;20034;-66
2021/01/22 08:17:48;;;;;;;16.20;3.60;;;4.90;99.90;;;;;;4837561;29;20362;-66
2021/01/22 08:20:14;;;;;;;;;;;4.90;99.90;;;;;;4838343;29;20144;-66
2021/01/22 08:22:41;;;;;;;17.25;2.92;;;5.00;99.90;;;;;;4838134;29;19926;-67
2021/01/22 08:25:08;;;;;;;15.52;3.13;;;5.00;99.90;;;;;;4837209;29;20156;-67
2021/01/22 08:27:34;;;;;;;23.48;4.57;;;5.10;99.90;;;;;;4837628;29;20034;-67
2021/01/22 08:30:00;;;;;;;15.30;3.40;;;5.10;99.90;;;;;;4806276;29;20050;-66
2021/01/22 08:32:28;;;;;;;23.73;3.53;;;5.20;99.90;;;;;;4837874;29;20041;-66
2021/01/22 08:34:55;;;;;;;25.65;4.45;;;5.40;99.90;;;;;;4837159;29;20049;-66
2021/01/22 08:37:21;;;;;;;16.90;3.28;;;5.40;99.90;;;;;;4840912;29;20520;-67
2021/01/22 08:39:55;;;;;;;29.88;5.47;;;5.30;99.90;;;;;;4841396;29;20034;-66
2021/01/22 08:42:23;;;;;;;28.98;5.55;;;5.40;99.90;;;;;;4840888;29;20214;-66
2021/01/22 08:44:55;;;;;;;27.27;5.30;;;5.40;99.90;;;;;;4839735;29;20036;-67
2021/01/22 08:47:22;;;;;;;16.73;3.10;;;5.50;99.90;;;;;;4840507;29;20084;-66
2021/01/22 08:49:58;;;;;;;29.77;5.10;;;5.50;99.90;;;;;;4839977;29;20026;-67
2021/01/22 08:52:25;;;;;;;24.65;5.45;;;5.60;99.90;;;;;;4841403;29;20033;-66
2021/01/22 08:54:54;;;;;;;19.60;4.20;;;5.70;99.90;;;;;;4823726;29;20053;-67
2021/01/22 08:57:22;;;;;;;22.83;3.60;;;5.70;99.90;;;;;;4840628;29;20100;-68
2021/01/22 08:59:50;;;;;;;23.98;4.53;;;5.80;99.90;;;;;;4840427;29;20113;-66
2021/01/22 09:02:40;;;;;;;24.45;6.07;;;5.80;99.90;;;;;;4838522;29;20041;-67
2021/01/22 09:05:11;;;;;;;17.75;4.07;;;5.90;99.90;;;;;;4840266;29;20062;-68
2021/01/22 09:07:38;;;;;;;31.17;4.75;;;6.40;99.90;;;;;;4840450;29;20774;-66
2021/01/22 09:10:24;;;;;;;17.58;5.05;;;6.50;99.90;;;;;;4840265;29;20539;-67
2021/01/22 09:12:50;;;;;;;33.38;5.97;;;6.30;99.90;;;;;;4840045;29;20139;-67
2021/01/22 09:15:17;;;;;;;20.75;3.95;;;6.00;99.90;;;;;;4840236;29;20546;-68
2021/01/22 09:17:50;;;;;;;18.17;4.10;;;6.20;99.90;;;;;;4840774;29;20097;-67
2021/01/22 09:20:29;;;;;;;22.38;4.15;;;6.50;99.90;;;;;;4840092;29;20412;-67
2021/01/22 09:23:03;;;;;;;20.52;3.63;;;6.80;99.90;;;;;;4840021;29;20128;-67
2021/01/22 09:25:29;;;;;;;19.17;3.70;;;6.90;99.90;;;;;;4839670;29;20092;-67
2021/01/22 09:27:55;;;;;;;22.38;4.22;;;7.30;99.90;;;;;;4840169;29;20489;-67
2021/01/22 09:30:25;;;;;;;21.08;4.75;;;7.70;99.90;;;;;;4840599;29;20581;-67
2021/01/22 09:32:55;;;;;;;15.85;3.72;;;8.00;99.90;;;;;;4839770;29;20076;-67
2021/01/22 09:35:23;;;;;;;19.52;4.03;;;8.00;99.90;;;;;;4840263;29;20640;-66
2021/01/22 09:37:49;;;;;;;23.30;4.13;;;7.80;99.90;;;;;;4823435;29;20041;-67
2021/01/22 09:40:17;;;;;;;21.45;4.28;;;8.20;99.90;;;;;;4839971;29;20124;-67
2021/01/22 09:42:43;;;;;;;23.88;4.70;;;8.00;99.90;;;;;;4839921;29;20105;-66
2021/01/22 09:45:11;;;;;;;24.85;4.90;;;7.60;99.90;;;;;;4840166;29;20045;-67
2021/01/22 09:47:37;;;;;;;27.80;4.00;;;7.10;99.90;;;;;;4839290;29;20049;-68
2021/01/22 09:50:05;;;;;;;30.25;6.38;;;6.70;99.90;;;;;;4840038;29;20037;-67
2021/01/22 09:52:33;;;;;;;22.55;4.10;;;6.30;99.90;;;;;;4839928;29;20033;-67
2021/01/22 09:54:59;;;;;;;29.20;5.57;;;6.10;99.90;;;;;;4839853;29;20057;-67
2021/01/22 09:57:25;;;;;;;27.30;4.35;;;6.20;99.90;;;;;;4839809;29;20483;-67
2021/01/22 09:59:51;;;;;;;33.03;5.28;;;6.50;99.90;;;;;;4840740;29;20034;-69
2021/01/22 10:02:16;;;;;;;21.35;3.78;;;7.00;99.90;;;;;;4839811;29;20033;-67
2021/01/22 10:04:42;;;;;;;20.85;4.30;;;7.20;99.90;;;;;;4839347;29;20543;-67
2021/01/22 10:07:08;;;;;;;24.58;5.05;;;7.40;99.90;;;;;;4823114;29;20049;-67
2021/01/22 10:09:34;;;;;;;23.38;4.15;;;7.60;99.90;;;;;;4822977;29;21025;-67
2021/01/22 10:12:00;;;;;;;26.77;5.45;;;7.90;99.90;;;;;;4839488;29;20029;-67
2021/01/22 10:14:26;;;;;;;34.20;5.15;;;8.00;99.90;;;;;;4838841;29;20121;-66
2021/01/22 10:16:52;;;;;;;19.48;3.92;;;8.10;99.90;;;;;;4834704;29;20133;-66
2021/01/22 10:19:19;;;;;;;26.27;4.90;;;8.20;99.90;;;;;;4839413;29;20049;-67
2021/01/22 10:21:44;;;;;;;25.35;3.80;;;8.00;99.90;;;;;;4838763;29;20033;-66
2021/01/22 10:24:10;;;;;;;20.38;3.65;;;7.40;99.90;;;;;;4807780;29;20038;-66
2021/01/22 10:26:36;;;;;;;29.50;4.53;;;7.00;99.90;;;;;;4839595;29;20401;-66
2021/01/22 10:29:02;;;;;;;27.40;5.43;;;7.20;99.90;;;;;;4839556;29;20030;-67
2021/01/22 10:31:28;;;;;;;20.35;3.88;;;7.40;99.90;;;;;;4838530;29;20374;-67
2021/01/22 10:33:54;;;;;;;23.25;3.45;;;7.70;99.90;;;;;;4807885;29;20034;-67
2021/01/22 10:36:20;;;;;;;25.05;3.90;;;8.00;99.90;;;;;;4807149;29;20044;-67
2021/01/22 10:38:46;;;;;;;22.75;5.72;;;7.70;99.90;;;;;;4839436;29;20030;-67
2021/01/22 10:41:13;;;;;;;27.75;5.40;;;7.30;99.90;;;;;;4839127;29;20473;-67
2021/01/22 10:43:38;;;;;;;22.48;5.47;;;7.10;99.90;;;;;;4837858;29;20045;-67
2021/01/22 10:46:04;;;;;;;32.65;5.78;;;6.90;99.90;;;;;;4839497;29;20041;-67
2021/01/22 10:48:30;;;;;;;24.65;4.93;;;6.90;99.90;;;;;;4838667;29;20029;-67
2021/01/22 10:50:56;;;;;;;28.58;4.22;;;7.00;99.90;;;;;;4837347;29;20049;-67
2021/01/22 10:53:23;;;;;;;24.92;4.43;;;6.80;99.90;;;;;;4837824;29;20709;-66
2021/01/22 10:55:49;;;;;;;24.83;4.70;;;6.70;99.90;;;;;;4838761;29;20036;-66
2021/01/22 10:58:15;;;;;;;31.58;4.75;;;6.60;99.90;;;;;;4839099;29;20045;-67
2021/01/22 11:00:41;;;;;;;24.85;4.15;;;6.30;99.90;;;;;;4838077;29;20454;-67
2021/01/22 11:03:07;;;;;;;29.45;6.18;;;5.90;99.90;;;;;;4834284;29;20486;-67
2021/01/22 11:05:34;;;;;;;30.23;4.80;;;5.70;99.90;;;;;;4838524;29;20076;-67
2021/01/22 11:08:00;;;;;;;33.45;5.53;;;5.60;99.90;;;;;;4838270;29;20141;-67
2021/01/22 11:10:26;;;;;;;29.98;5.50;;;5.70;99.90;;;;;;4838615;29;20473;-67
2021/01/22 11:12:53;;;;;;;33.47;5.45;;;5.80;99.90;;;;;;4837950;29;20033;-66
2021/01/22 11:15:19;;;;;;;46.17;7.90;;;5.90;99.90;;;;;;4837862;29;20040;-67
2021/01/22 11:17:45;;;;;;;32.97;5.97;;;5.90;99.90;;;;;;4838281;29;20033;-67
2021/01/22 11:20:12;;;;;;;30.48;4.47;;;5.90;99.90;;;;;;4821486;29;20046;-68
2021/01/22 11:22:38;;;;;;;32.78;5.85;;;6.00;99.90;;;;;;4837711;29;20030;-68
2021/01/22 11:25:05;;;;;;;22.83;5.07;;;6.10;99.90;;;;;;4837400;29;20036;-68
2021/01/22 11:27:31;;;;;;;38.83;5.82;;;6.10;99.90;;;;;;4822245;29;20041;-67
2021/01/22 11:29:57;;;;;;;28.50;5.20;;;6.30;99.90;;;;;;4838424;29;20053;-67
2021/01/22 11:32:23;;;;;;;24.75;7.15;;;6.40;99.90;;;;;;4838439;29;20033;-67
2021/01/22 11:34:49;;;;;;;28.20;5.85;;;6.50;99.90;;;;;;4836460;29;20122;-67
2021/01/22 11:37:15;;;;;;;26.15;4.03;;;6.60;99.90;;;;;;4821591;29;20591;-67
2021/01/22 11:39:40;;;;;;;31.27;5.22;;;6.70;99.90;;;;;;4838200;29;20034;-67
2021/01/22 11:42:08;;;;;;;29.88;4.57;;;6.70;99.90;;;;;;4837913;29;20049;-67
2021/01/22 11:44:34;;;;;;;27.92;5.80;;;6.70;99.90;;;;;;4835936;29;20041;-67
2021/01/22 11:47:00;;;;;;;28.50;4.97;;;6.60;99.90;;;;;;4837821;29;20042;-67
2021/01/22 11:49:27;;;;;;;27.38;5.68;;;6.50;99.90;;;;;;4837852;29;20075;-67
2021/01/22 11:51:53;;;;;;;35.58;5.53;;;6.50;99.90;;;;;;4838427;29;20062;-67
2021/01/22 11:54:19;;;;;;;33.33;5.60;;;6.50;99.90;;;;;;4837092;29;20057;-67
2021/01/22 11:56:50;;;;;;;26.95;5.85;;;6.50;99.90;;;;;;4837424;29;20030;-67
2021/01/22 11:59:19;;;;;;;36.75;6.10;;;6.40;99.90;;;;;;4838219;29;20044;-67
2021/01/22 12:01:46;;;;;;;25.50;5.50;;;6.40;99.90;;;;;;4837342;29;20034;-66
2021/01/22 12:04:12;;;;;;;32.53;5.88;;;6.40;99.90;;;;;;4837323;29;20680;-67
2021/01/22 12:06:39;;;;;;;25.40;4.70;;;6.50;99.90;;;;;;4806154;29;21074;-66
2021/01/22 12:09:05;;;;;;;25.23;6.70;;;6.50;99.90;;;;;;4837703;29;20026;-67
2021/01/22 12:11:32;;;;;;;39.00;5.47;;;6.50;99.90;;;;;;4843282;29;20060;-67
2021/01/22 12:13:58;;;;;;;22.35;4.88;;;6.60;99.90;;;;;;4842487;29;20026;-66
2021/01/22 12:16:25;;;;;;;28.05;4.82;;;6.60;99.90;;;;;;4841386;29;20446;-66
2021/01/22 12:18:51;;;;;;;24.13;4.60;;;6.50;99.90;;;;;;4843533;29;20034;-66
2021/01/22 12:21:17;;;;;;;29.95;5.80;;;6.50;99.90;;;;;;4843873;29;20029;-67
2021/01/22 12:23:43;;;;;;;24.65;4.30;;;6.50;99.90;;;;;;4826763;29;20112;-66
2021/01/22 12:26:12;;;;;;;28.92;5.70;;;6.50;99.90;;;;;;4843872;29;20113;-67
2021/01/22 12:28:39;;;;;;;29.20;4.07;;;6.50;99.90;;;;;;4843660;29;20025;-67
2021/01/22 12:31:06;;;;;;;32.20;5.25;;;6.50;99.90;;;;;;4843189;29;20037;-67
2021/01/22 12:33:33;;;;;;;24.77;4.30;;;6.50;99.90;;;;;;4842609;29;20026;-67
2021/01/22 12:35:59;;;;;;;24.55;4.78;;;6.40;99.90;;;;;;4843326;29;20049;-66
2021/01/22 12:38:25;;;;;;;23.40;4.72;;;6.40;99.90;;;;;;4843389;29;20029;-67
2021/01/22 12:40:51;;;;;;;32.88;5.25;;;6.50;99.90;;;;;;4843963;29;20038;-66
2021/01/22 12:43:17;;;;;;;26.08;5.72;;;6.50;99.90;;;;;;4843069;29;20058;-66
2021/01/22 12:45:44;;;;;;;27.30;5.18;;;6.50;99.90;;;;;;4843611;29;20156;-66
2021/01/22 12:48:10;;;;;;;34.50;6.20;;;6.50;99.90;;;;;;4843016;29;20083;-67
2021/01/22 12:50:36;;;;;;;29.15;6.45;;;6.50;99.90;;;;;;4841508;29;20065;-66
2021/01/22 12:53:03;;;;;;;30.23;4.80;;;6.50;99.90;;;;;;4825492;29;20566;-66